sensor_id;sensor_type;location;lat;lon;timestamp;temperature;humidity
15115;DHT22;7658;51.456;7.622;2023-08-06T00:00:38;14.90;99.90
15115;DHT22;7658;51.456;7.622;2023-08-06T00:03:04;14.90;99.90
15115;DHT22;7658;51.456;7.622;2023-08-06T00:05:30;14.90;99.90
15115;DHT22;7658;51.456;7.622;2023-08-06T00:07:55;14.90;99.90
15115;DHT22;7658;51.456;7.622;2023-08-06T00:10:21;14.90;99.90
15115;DHT22;7658;51.456;7.622;2023-08-06T00:12:47;14.90;99.90
15115;DHT22;7658;51.456;7.622;2023-08-06T00:15:14;14.90;99.90
15115;DHT22;7658;51.456;7.622;2023-08-06T00:17:39;14.90;99.90
15115;DHT22;7658;51.456;7.622;2023-08-06T00:20:06;14.80;99.90
15115;DHT22;7658;51.456;7.622;2023-08-06T00:22:36;14.80;99.90
15115;DHT22;7658;51.456;7.622;2023-08-06T00:25:03;14.90;99.90
15115;DHT22;7658;51.456;7.622;2023-08-06T00:27:29;14.80;99.90
15115;DHT22;7658;51.456;7.622;2023-08-06T00:29:55;14.90;99.90
15115;DHT22;7658;51.456;7.622;2023-08-06T00:32:21;14.90;99.90
15115;DHT22;7658;51.456;7.622;2023-08-06T00:34:46;14.80;99.90
15115;DHT22;7658;51.456;7.622;2023-08-06T00:37:17;14.90;99.90
15115;DHT22;7658;51.456;7.622;2023-08-06T00:39:43;14.90;99.90
15115;DHT22;7658;51.456;7.622;2023-08-06T00:42:10;14.90;99.90
15115;DHT22;7658;51.456;7.622;2023-08-06T00:44:37;14.90;99.90
15115;DHT22;7658;51.456;7.622;2023-08-06T00:47:03;14.90;99.90
15115;DHT22;7658;51.456;7.622;2023-08-06T00:49:29;14.90;99.90
15115;DHT22;7658;51.456;7.622;2023-08-06T00:51:55;14.90;99.90
15115;DHT22;7658;51.456;7.622;2023-08-06T00:54:23;14.90;99.90
15115;DHT22;7658;51.456;7.622;2023-08-06T00:56:49;14.90;99.90
15115;DHT22;7658;51.456;7.622;2023-08-06T00:59:15;14.90;99.90
15115;DHT22;7658;51.456;7.622;2023-08-06T01:01:41;14.90;99.90
15115;DHT22;7658;51.456;7.622;2023-08-06T01:04:07;14.80;99.90
15115;DHT22;7658;51.456;7.622;2023-08-06T01:06:46;14.80;99.90
15115;DHT22;7658;51.456;7.622;2023-08-06T01:14:57;14.70;99.90
15115;DHT22;7658;51.456;7.622;2023-08-06T01:17:24;14.60;99.90
15115;DHT22;7658;51.456;7.622;2023-08-06T01:19:52;14.60;99.90
15115;DHT22;7658;51.456;7.622;2023-08-06T01:22:18;14.70;99.90
15115;DHT22;7658;51.456;7.622;2023-08-06T01:24:47;14.70;99.90
15115;DHT22;7658;51.456;7.622;2023-08-06T01:27:48;14.70;99.90
15115;DHT22;7658;51.456;7.622;2023-08-06T01:30:27;14.70;99.90
15115;DHT22;7658;51.456;7.622;2023-08-06T01:32:58;14.70;99.90
15115;DHT22;7658;51.456;7.622;2023-08-06T01:35:27;14.70;99.90
15115;DHT22;7658;51.456;7.622;2023-08-06T01:37:53;14.70;99.90
15115;DHT22;7658;51.456;7.622;2023-08-06T01:40:20;14.70;99.90
15115;DHT22;7658;51.456;7.622;2023-08-06T01:42:45;14.70;99.90
15115;DHT22;7658;51.456;7.622;2023-08-06T01:45:11;14.70;99.90
15115;DHT22;7658;51.456;7.622;2023-08-06T01:47:37;14.70;99.90
15115;DHT22;7658;51.456;7.622;2023-08-06T01:50:03;14.80;99.90
15115;DHT22;7658;51.456;7.622;2023-08-06T01:52:29;14.70;99.90
15115;DHT22;7658;51.456;7.622;2023-08-06T01:54:55;14.70;99.90
15115;DHT22;7658;51.456;7.622;2023-08-06T01:57:21;14.80;99.90
15115;DHT22;7658;51.456;7.622;2023-08-06T01:59:47;14.80;99.90
15115;DHT22;7658;51.456;7.622;2023-08-06T02:02:13;14.80;99.90
15115;DHT22;7658;51.456;7.622;2023-08-06T02:04:38;14.80;99.90
15115;DHT22;7658;51.456;7.622;2023-08-06T02:07:04;14.80;99.90
15115;DHT22;7658;51.456;7.622;2023-08-06T02:09:30;14.80;99.90
15115;DHT22;7658;51.456;7.622;2023-08-06T02:11:56;14.80;99.90
15115;DHT22;7658;51.456;7.622;2023-08-06T02:14:21;14.80;99.90
15115;DHT22;7658;51.456;7.622;2023-08-06T02:16:47;14.80;99.90
15115;DHT22;7658;51.456;7.622;2023-08-06T02:19:13;14.70;99.90
15115;DHT22;7658;51.456;7.622;2023-08-06T02:21:39;14.70;99.90
15115;DHT22;7658;51.456;7.622;2023-08-06T02:24:04;14.70;99.90
15115;DHT22;7658;51.456;7.622;2023-08-06T02:26:30;14.70;99.90
15115;DHT22;7658;51.456;7.622;2023-08-06T02:28:56;14.70;99.90
15115;DHT22;7658;51.456;7.622;2023-08-06T02:31:21;14.70;99.90
15115;DHT22;7658;51.456;7.622;2023-08-06T02:33:47;14.70;99.90
15115;DHT22;7658;51.456;7.622;2023-08-06T02:36:13;14.70;99.90
15115;DHT22;7658;51.456;7.622;2023-08-06T02:38:38;14.70;99.90
15115;DHT22;7658;51.456;7.622;2023-08-06T02:41:04;14.70;99.90
15115;DHT22;7658;51.456;7.622;2023-08-06T02:43:30;14.70;99.90
15115;DHT22;7658;51.456;7.622;2023-08-06T02:45:57;14.70;99.90
15115;DHT22;7658;51.456;7.622;2023-08-06T02:48:23;14.70;99.90
15115;DHT22;7658;51.456;7.622;2023-08-06T02:50:49;14.70;99.90
15115;DHT22;7658;51.456;7.622;2023-08-06T02:53:14;14.70;99.90
15115;DHT22;7658;51.456;7.622;2023-08-06T02:55:47;14.70;99.90
15115;DHT22;7658;51.456;7.622;2023-08-06T02:58:14;14.60;99.90
15115;DHT22;7658;51.456;7.622;2023-08-06T03:00:40;14.60;99.90
15115;DHT22;7658;51.456;7.622;2023-08-06T03:03:06;14.60;99.90
15115;DHT22;7658;51.456;7.622;2023-08-06T03:05:32;14.60;99.90
15115;DHT22;7658;51.456;7.622;2023-08-06T03:07:57;14.60;99.90
15115;DHT22;7658;51.456;7.622;2023-08-06T03:10:23;14.50;99.90
15115;DHT22;7658;51.456;7.622;2023-08-06T03:12:49;14.50;99.90
15115;DHT22;7658;51.456;7.622;2023-08-06T03:15:14;14.50;99.90
15115;DHT22;7658;51.456;7.622;2023-08-06T03:17:41;14.50;99.90
15115;DHT22;7658;51.456;7.622;2023-08-06T03:20:07;14.50;99.90
15115;DHT22;7658;51.456;7.622;2023-08-06T03:22:33;14.50;99.90
15115;DHT22;7658;51.456;7.622;2023-08-06T03:24:59;14.50;99.90
15115;DHT22;7658;51.456;7.622;2023-08-06T03:27:25;14.40;99.90
15115;DHT22;7658;51.456;7.622;2023-08-06T03:29:51;14.40;99.90
15115;DHT22;7658;51.456;7.622;2023-08-06T03:32:17;14.30;99.90
15115;DHT22;7658;51.456;7.622;2023-08-06T03:34:42;14.40;99.90
15115;DHT22;7658;51.456;7.622;2023-08-06T03:37:08;14.30;99.90
15115;DHT22;7658;51.456;7.622;2023-08-06T03:39:34;14.30;99.90
15115;DHT22;7658;51.456;7.622;2023-08-06T03:42:00;14.30;99.90
15115;DHT22;7658;51.456;7.622;2023-08-06T03:44:25;14.20;99.90
15115;DHT22;7658;51.456;7.622;2023-08-06T03:46:52;14.20;99.90
15115;DHT22;7658;51.456;7.622;2023-08-06T03:49:18;14.20;99.90
15115;DHT22;7658;51.456;7.622;2023-08-06T03:51:44;14.20;99.90
15115;DHT22;7658;51.456;7.622;2023-08-06T03:54:09;14.10;99.90
15115;DHT22;7658;51.456;7.622;2023-08-06T03:56:35;14.20;99.90
15115;DHT22;7658;51.456;7.622;2023-08-06T03:59:01;14.20;99.90
15115;DHT22;7658;51.456;7.622;2023-08-06T04:01:27;14.20;99.90
15115;DHT22;7658;51.456;7.622;2023-08-06T04:03:53;14.20;99.90
15115;DHT22;7658;51.456;7.622;2023-08-06T04:06:18;14.20;99.90
15115;DHT22;7658;51.456;7.622;2023-08-06T04:08:44;14.20;99.90
15115;DHT22;7658;51.456;7.622;2023-08-06T04:11:10;14.10;99.90
15115;DHT22;7658;51.456;7.622;2023-08-06T04:13:36;14.10;99.90
15115;DHT22;7658;51.456;7.622;2023-08-06T04:16:04;14.10;99.90
15115;DHT22;7658;51.456;7.622;2023-08-06T04:18:30;14.10;99.90
15115;DHT22;7658;51.456;7.622;2023-08-06T04:20:56;14.10;99.90
15115;DHT22;7658;51.456;7.622;2023-08-06T04:23:23;14.10;99.90
15115;DHT22;7658;51.456;7.622;2023-08-06T04:25:49;14.10;99.90
15115;DHT22;7658;51.456;7.622;2023-08-06T04:28:15;14.10;99.90
15115;DHT22;7658;51.456;7.622;2023-08-06T04:30:41;14.10;99.90
15115;DHT22;7658;51.456;7.622;2023-08-06T04:33:06;14.00;99.90
15115;DHT22;7658;51.456;7.622;2023-08-06T04:35:32;14.00;99.90
15115;DHT22;7658;51.456;7.622;2023-08-06T04:37:58;14.00;99.90
15115;DHT22;7658;51.456;7.622;2023-08-06T04:40:24;14.00;99.90
15115;DHT22;7658;51.456;7.622;2023-08-06T04:42:49;14.00;99.90
15115;DHT22;7658;51.456;7.622;2023-08-06T04:45:15;14.00;99.90
15115;DHT22;7658;51.456;7.622;2023-08-06T04:47:41;14.00;99.90
15115;DHT22;7658;51.456;7.622;2023-08-06T04:50:07;14.10;99.90
15115;DHT22;7658;51.456;7.622;2023-08-06T04:52:32;14.20;99.90
15115;DHT22;7658;51.456;7.622;2023-08-06T04:54:58;14.20;99.90
15115;DHT22;7658;51.456;7.622;2023-08-06T04:57:24;14.20;99.90
15115;DHT22;7658;51.456;7.622;2023-08-06T04:59:50;14.10;99.90
15115;DHT22;7658;51.456;7.622;2023-08-06T05:02:16;14.10;99.90
15115;DHT22;7658;51.456;7.622;2023-08-06T05:04:41;14.20;99.90
15115;DHT22;7658;51.456;7.622;2023-08-06T05:07:07;14.20;99.90
15115;DHT22;7658;51.456;7.622;2023-08-06T05:09:33;14.30;99.90
15115;DHT22;7658;51.456;7.622;2023-08-06T05:12:03;14.30;99.90
15115;DHT22;7658;51.456;7.622;2023-08-06T05:14:29;14.30;99.90
15115;DHT22;7658;51.456;7.622;2023-08-06T05:16:54;14.40;99.90
15115;DHT22;7658;51.456;7.622;2023-08-06T05:19:20;14.40;99.90
15115;DHT22;7658;51.456;7.622;2023-08-06T05:21:46;14.40;99.90
15115;DHT22;7658;51.456;7.622;2023-08-06T05:24:11;14.40;99.90
15115;DHT22;7658;51.456;7.622;2023-08-06T05:26:37;14.40;99.90
15115;DHT22;7658;51.456;7.622;2023-08-06T05:29:03;14.50;99.90
15115;DHT22;7658;51.456;7.622;2023-08-06T05:31:29;14.60;99.90
15115;DHT22;7658;51.456;7.622;2023-08-06T05:33:55;14.60;99.90
15115;DHT22;7658;51.456;7.622;2023-08-06T05:36:20;14.70;99.90
15115;DHT22;7658;51.456;7.622;2023-08-06T05:38:47;14.70;99.90
15115;DHT22;7658;51.456;7.622;2023-08-06T05:41:13;14.80;99.90
15115;DHT22;7658;51.456;7.622;2023-08-06T05:43:39;14.80;99.90
15115;DHT22;7658;51.456;7.622;2023-08-06T05:46:04;14.80;99.90
15115;DHT22;7658;51.456;7.622;2023-08-06T05:48:30;14.80;99.90
15115;DHT22;7658;51.456;7.622;2023-08-06T05:50:57;14.80;99.90
15115;DHT22;7658;51.456;7.622;2023-08-06T05:53:24;14.80;99.90
15115;DHT22;7658;51.456;7.622;2023-08-06T05:55:50;14.90;99.90
15115;DHT22;7658;51.456;7.622;2023-08-06T05:58:16;15.00;99.90
15115;DHT22;7658;51.456;7.622;2023-08-06T06:00:41;15.00;99.90
15115;DHT22;7658;51.456;7.622;2023-08-06T06:03:07;15.10;99.90
15115;DHT22;7658;51.456;7.622;2023-08-06T06:05:33;15.20;99.90
15115;DHT22;7658;51.456;7.622;2023-08-06T06:07:58;15.20;99.90
15115;DHT22;7658;51.456;7.622;2023-08-06T06:10:24;15.40;99.90
15115;DHT22;7658;51.456;7.622;2023-08-06T06:12:50;15.30;99.90
15115;DHT22;7658;51.456;7.622;2023-08-06T06:15:16;15.30;99.90
15115;DHT22;7658;51.456;7.622;2023-08-06T06:17:41;15.30;99.90
15115;DHT22;7658;51.456;7.622;2023-08-06T06:20:35;15.50;99.90
15115;DHT22;7658;51.456;7.622;2023-08-06T06:23:01;15.70;99.90
15115;DHT22;7658;51.456;7.622;2023-08-06T06:25:34;15.70;99.90
15115;DHT22;7658;51.456;7.622;2023-08-06T06:27:59;15.80;99.90
15115;DHT22;7658;51.456;7.622;2023-08-06T06:30:25;16.00;99.90
15115;DHT22;7658;51.456;7.622;2023-08-06T06:33:01;16.20;99.90
15115;DHT22;7658;51.456;7.622;2023-08-06T06:35:27;16.40;99.90
15115;DHT22;7658;51.456;7.622;2023-08-06T06:37:52;16.50;99.90
15115;DHT22;7658;51.456;7.622;2023-08-06T06:40:18;16.60;99.90
15115;DHT22;7658;51.456;7.622;2023-08-06T06:42:44;16.70;99.90
15115;DHT22;7658;51.456;7.622;2023-08-06T06:45:10;16.70;99.90
15115;DHT22;7658;51.456;7.622;2023-08-06T06:47:38;16.80;99.90
15115;DHT22;7658;51.456;7.622;2023-08-06T06:50:04;17.00;99.90
15115;DHT22;7658;51.456;7.622;2023-08-06T06:52:30;17.10;99.90
15115;DHT22;7658;51.456;7.622;2023-08-06T06:54:55;17.00;99.90
15115;DHT22;7658;51.456;7.622;2023-08-06T06:57:21;16.90;99.90
15115;DHT22;7658;51.456;7.622;2023-08-06T06:59:47;16.90;99.90
15115;DHT22;7658;51.456;7.622;2023-08-06T07:02:12;16.90;99.90
15115;DHT22;7658;51.456;7.622;2023-08-06T07:04:38;16.80;99.90
15115;DHT22;7658;51.456;7.622;2023-08-06T07:07:13;16.80;99.90
15115;DHT22;7658;51.456;7.622;2023-08-06T07:09:39;16.80;99.90
15115;DHT22;7658;51.456;7.622;2023-08-06T07:12:05;16.80;99.90
15115;DHT22;7658;51.456;7.622;2023-08-06T07:14:30;16.90;99.90
15115;DHT22;7658;51.456;7.622;2023-08-06T07:16:56;16.80;99.90
15115;DHT22;7658;51.456;7.622;2023-08-06T07:19:23;16.90;99.90
15115;DHT22;7658;51.456;7.622;2023-08-06T07:21:49;16.90;99.90
15115;DHT22;7658;51.456;7.622;2023-08-06T07:24:15;17.10;99.90
15115;DHT22;7658;51.456;7.622;2023-08-06T07:26:40;17.10;99.90
15115;DHT22;7658;51.456;7.622;2023-08-06T07:29:06;17.10;99.90
15115;DHT22;7658;51.456;7.622;2023-08-06T07:31:32;17.30;99.90
15115;DHT22;7658;51.456;7.622;2023-08-06T07:33:58;17.20;99.90
15115;DHT22;7658;51.456;7.622;2023-08-06T07:36:34;17.30;99.90
15115;DHT22;7658;51.456;7.622;2023-08-06T07:39:00;17.40;99.90
15115;DHT22;7658;51.456;7.622;2023-08-06T07:41:26;17.40;99.90
15115;DHT22;7658;51.456;7.622;2023-08-06T07:43:51;17.50;99.90
15115;DHT22;7658;51.456;7.622;2023-08-06T07:46:17;17.50;99.90
15115;DHT22;7658;51.456;7.622;2023-08-06T07:48:43;17.50;99.90
15115;DHT22;7658;51.456;7.622;2023-08-06T07:51:09;17.40;99.90
15115;DHT22;7658;51.456;7.622;2023-08-06T07:53:36;17.50;99.90
15115;DHT22;7658;51.456;7.622;2023-08-06T07:56:05;17.50;99.90
15115;DHT22;7658;51.456;7.622;2023-08-06T07:58:30;17.40;99.90
15115;DHT22;7658;51.456;7.622;2023-08-06T08:01:03;17.40;99.90
15115;DHT22;7658;51.456;7.622;2023-08-06T08:03:29;17.40;99.90
15115;DHT22;7658;51.456;7.622;2023-08-06T08:05:55;17.50;99.90
15115;DHT22;7658;51.456;7.622;2023-08-06T08:08:26;17.60;99.90
15115;DHT22;7658;51.456;7.622;2023-08-06T08:11:03;17.70;99.90
15115;DHT22;7658;51.456;7.622;2023-08-06T08:13:29;17.90;99.90
15115;DHT22;7658;51.456;7.622;2023-08-06T08:15:58;18.00;99.90
15115;DHT22;7658;51.456;7.622;2023-08-06T08:18:28;18.00;99.90
15115;DHT22;7658;51.456;7.622;2023-08-06T08:20:54;18.00;99.90
15115;DHT22;7658;51.456;7.622;2023-08-06T08:27:01;18.00;99.90
15115;DHT22;7658;51.456;7.622;2023-08-06T08:29:27;17.80;99.90
15115;DHT22;7658;51.456;7.622;2023-08-06T08:31:53;17.90;99.90
15115;DHT22;7658;51.456;7.622;2023-08-06T08:34:19;18.00;99.90
15115;DHT22;7658;51.456;7.622;2023-08-06T08:36:45;18.20;99.90
15115;DHT22;7658;51.456;7.622;2023-08-06T08:39:15;18.30;99.90
15115;DHT22;7658;51.456;7.622;2023-08-06T08:41:41;18.30;99.90
15115;DHT22;7658;51.456;7.622;2023-08-06T08:44:10;18.20;99.90
15115;DHT22;7658;51.456;7.622;2023-08-06T08:46:40;18.10;99.90
15115;DHT22;7658;51.456;7.622;2023-08-06T08:49:06;18.10;99.90
15115;DHT22;7658;51.456;7.622;2023-08-06T08:51:33;18.00;99.90
15115;DHT22;7658;51.456;7.622;2023-08-06T08:54:02;17.90;99.90
15115;DHT22;7658;51.456;7.622;2023-08-06T08:56:29;17.80;99.90
15115;DHT22;7658;51.456;7.622;2023-08-06T08:58:54;17.80;99.90
15115;DHT22;7658;51.456;7.622;2023-08-06T09:01:22;17.80;99.90
15115;DHT22;7658;51.456;7.622;2023-08-06T09:03:50;17.70;99.90
15115;DHT22;7658;51.456;7.622;2023-08-06T09:06:17;17.70;99.90
15115;DHT22;7658;51.456;7.622;2023-08-06T09:09:13;17.70;99.90
15115;DHT22;7658;51.456;7.622;2023-08-06T09:11:44;17.60;99.90
15115;DHT22;7658;51.456;7.622;2023-08-06T09:14:11;17.60;99.90
15115;DHT22;7658;51.456;7.622;2023-08-06T09:16:37;17.60;99.90
15115;DHT22;7658;51.456;7.622;2023-08-06T09:19:08;17.70;99.90
15115;DHT22;7658;51.456;7.622;2023-08-06T09:21:37;17.70;99.90
15115;DHT22;7658;51.456;7.622;2023-08-06T09:24:10;17.80;99.90
15115;DHT22;7658;51.456;7.622;2023-08-06T09:26:37;17.80;99.90
15115;DHT22;7658;51.456;7.622;2023-08-06T09:29:07;17.90;99.90
15115;DHT22;7658;51.456;7.622;2023-08-06T09:34:11;18.00;99.90
15115;DHT22;7658;51.456;7.622;2023-08-06T09:36:42;18.20;99.90
15115;DHT22;7658;51.456;7.622;2023-08-06T09:39:26;18.30;99.90
15115;DHT22;7658;51.456;7.622;2023-08-06T09:42:23;18.40;99.90
15115;DHT22;7658;51.456;7.622;2023-08-06T09:44:48;18.40;99.90
15115;DHT22;7658;51.456;7.622;2023-08-06T09:47:16;18.40;99.90
15115;DHT22;7658;51.456;7.622;2023-08-06T09:49:43;18.40;99.90
15115;DHT22;7658;51.456;7.622;2023-08-06T09:52:12;18.50;99.90
15115;DHT22;7658;51.456;7.622;2023-08-06T09:54:38;18.60;99.90
15115;DHT22;7658;51.456;7.622;2023-08-06T09:57:05;18.70;99.90
15115;DHT22;7658;51.456;7.622;2023-08-06T09:59:32;18.90;99.90
15115;DHT22;7658;51.456;7.622;2023-08-06T10:01:59;18.90;99.90
15115;DHT22;7658;51.456;7.622;2023-08-06T10:04:25;19.10;99.90
15115;DHT22;7658;51.456;7.622;2023-08-06T10:06:52;19.30;99.90
15115;DHT22;7658;51.456;7.622;2023-08-06T10:09:19;19.30;99.90
15115;DHT22;7658;51.456;7.622;2023-08-06T10:11:50;19.30;99.90
15115;DHT22;7658;51.456;7.622;2023-08-06T10:14:23;19.30;99.90
15115;DHT22;7658;51.456;7.622;2023-08-06T10:16:51;19.10;99.90
15115;DHT22;7658;51.456;7.622;2023-08-06T10:19:17;19.20;99.90
15115;DHT22;7658;51.456;7.622;2023-08-06T10:22:10;19.30;99.90
15115;DHT22;7658;51.456;7.622;2023-08-06T10:24:57;19.40;99.90
15115;DHT22;7658;51.456;7.622;2023-08-06T10:30:25;19.60;99.90
15115;DHT22;7658;51.456;7.622;2023-08-06T10:32:53;19.60;99.90
15115;DHT22;7658;51.456;7.622;2023-08-06T10:35:47;19.50;99.90
15115;DHT22;7658;51.456;7.622;2023-08-06T10:38:25;19.30;99.90
15115;DHT22;7658;51.456;7.622;2023-08-06T10:43:30;19.10;99.90
15115;DHT22;7658;51.456;7.622;2023-08-06T10:45:58;19.10;99.90
15115;DHT22;7658;51.456;7.622;2023-08-06T10:50:58;19.60;99.90
15115;DHT22;7658;51.456;7.622;2023-08-06T10:53:25;19.50;99.90
15115;DHT22;7658;51.456;7.622;2023-08-06T10:55:51;19.50;99.90
15115;DHT22;7658;51.456;7.622;2023-08-06T10:58:17;19.50;99.90
15115;DHT22;7658;51.456;7.622;2023-08-06T11:00:42;19.70;99.90
15115;DHT22;7658;51.456;7.622;2023-08-06T11:03:08;19.70;99.90
15115;DHT22;7658;51.456;7.622;2023-08-06T11:05:35;19.60;99.90
15115;DHT22;7658;51.456;7.622;2023-08-06T11:08:01;19.60;99.90
15115;DHT22;7658;51.456;7.622;2023-08-06T11:10:27;19.50;99.90
15115;DHT22;7658;51.456;7.622;2023-08-06T11:12:53;19.50;99.90
15115;DHT22;7658;51.456;7.622;2023-08-06T11:15:20;19.70;99.90
15115;DHT22;7658;51.456;7.622;2023-08-06T11:17:46;20.00;99.90
15115;DHT22;7658;51.456;7.622;2023-08-06T11:20:13;20.40;99.90
15115;DHT22;7658;51.456;7.622;2023-08-06T11:22:38;20.50;99.90
15115;DHT22;7658;51.456;7.622;2023-08-06T11:25:06;20.60;99.90
15115;DHT22;7658;51.456;7.622;2023-08-06T11:27:33;20.60;99.90
15115;DHT22;7658;51.456;7.622;2023-08-06T11:29:59;20.50;99.90
15115;DHT22;7658;51.456;7.622;2023-08-06T11:32:25;20.50;99.90
15115;DHT22;7658;51.456;7.622;2023-08-06T11:34:53;20.40;99.90
15115;DHT22;7658;51.456;7.622;2023-08-06T11:37:23;20.10;99.90
15115;DHT22;7658;51.456;7.622;2023-08-06T11:39:51;19.80;99.90
15115;DHT22;7658;51.456;7.622;2023-08-06T11:42:17;19.60;99.90
15115;DHT22;7658;51.456;7.622;2023-08-06T11:44:43;19.40;99.90
15115;DHT22;7658;51.456;7.622;2023-08-06T11:47:16;19.20;99.90
15115;DHT22;7658;51.456;7.622;2023-08-06T11:49:47;19.10;99.90
15115;DHT22;7658;51.456;7.622;2023-08-06T11:52:23;19.00;99.90
15115;DHT22;7658;51.456;7.622;2023-08-06T11:57:30;19.00;99.90
15115;DHT22;7658;51.456;7.622;2023-08-06T12:00:04;19.00;99.90
15115;DHT22;7658;51.456;7.622;2023-08-06T12:02:34;19.10;99.90
15115;DHT22;7658;51.456;7.622;2023-08-06T12:05:20;19.00;99.90
15115;DHT22;7658;51.456;7.622;2023-08-06T12:07:54;18.80;99.90
15115;DHT22;7658;51.456;7.622;2023-08-06T12:10:23;18.80;99.90
15115;DHT22;7658;51.456;7.622;2023-08-06T12:12:49;18.80;99.90
15115;DHT22;7658;51.456;7.622;2023-08-06T12:15:16;18.80;99.90
15115;DHT22;7658;51.456;7.622;2023-08-06T12:17:42;18.70;99.90
15115;DHT22;7658;51.456;7.622;2023-08-06T12:20:08;18.80;99.90
15115;DHT22;7658;51.456;7.622;2023-08-06T12:22:34;18.80;99.90
15115;DHT22;7658;51.456;7.622;2023-08-06T12:25:05;18.80;99.90
15115;DHT22;7658;51.456;7.622;2023-08-06T12:27:35;18.80;99.90
15115;DHT22;7658;51.456;7.622;2023-08-06T12:30:01;19.00;99.90
15115;DHT22;7658;51.456;7.622;2023-08-06T12:32:26;18.90;99.90
15115;DHT22;7658;51.456;7.622;2023-08-06T12:34:52;19.00;99.90
15115;DHT22;7658;51.456;7.622;2023-08-06T12:37:18;19.20;99.90
15115;DHT22;7658;51.456;7.622;2023-08-06T12:39:44;19.30;99.90
15115;DHT22;7658;51.456;7.622;2023-08-06T12:42:09;19.30;99.90
15115;DHT22;7658;51.456;7.622;2023-08-06T12:44:36;19.50;99.90
15115;DHT22;7658;51.456;7.622;2023-08-06T12:47:02;19.50;99.90
15115;DHT22;7658;51.456;7.622;2023-08-06T12:49:27;19.40;99.90
15115;DHT22;7658;51.456;7.622;2023-08-06T12:51:54;19.00;99.90
15115;DHT22;7658;51.456;7.622;2023-08-06T12:54:22;18.80;99.90
15115;DHT22;7658;51.456;7.622;2023-08-06T12:56:49;18.60;99.90
15115;DHT22;7658;51.456;7.622;2023-08-06T12:59:17;18.30;99.90
15115;DHT22;7658;51.456;7.622;2023-08-06T13:01:43;17.80;99.90
15115;DHT22;7658;51.456;7.622;2023-08-06T13:04:10;17.50;99.90
15115;DHT22;7658;51.456;7.622;2023-08-06T13:06:36;17.30;99.90
15115;DHT22;7658;51.456;7.622;2023-08-06T13:09:03;17.10;99.90
15115;DHT22;7658;51.456;7.622;2023-08-06T13:11:32;16.90;99.90
15115;DHT22;7658;51.456;7.622;2023-08-06T13:14:12;16.70;99.90
15115;DHT22;7658;51.456;7.622;2023-08-06T13:16:40;16.40;99.90
15115;DHT22;7658;51.456;7.622;2023-08-06T13:19:07;16.30;99.90
15115;DHT22;7658;51.456;7.622;2023-08-06T13:22:01;16.00;99.90
15115;DHT22;7658;51.456;7.622;2023-08-06T13:24:29;15.80;99.90
15115;DHT22;7658;51.456;7.622;2023-08-06T13:26:55;15.60;99.90
15115;DHT22;7658;51.456;7.622;2023-08-06T13:29:22;15.50;99.90
15115;DHT22;7658;51.456;7.622;2023-08-06T13:31:48;15.40;99.90
15115;DHT22;7658;51.456;7.622;2023-08-06T13:34:14;15.30;99.90
15115;DHT22;7658;51.456;7.622;2023-08-06T13:36:42;15.30;99.90
15115;DHT22;7658;51.456;7.622;2023-08-06T13:39:07;15.20;99.90
15115;DHT22;7658;51.456;7.622;2023-08-06T13:41:33;15.00;99.90
15115;DHT22;7658;51.456;7.622;2023-08-06T13:43:59;15.10;99.90
15115;DHT22;7658;51.456;7.622;2023-08-06T13:46:25;15.10;99.90
15115;DHT22;7658;51.456;7.622;2023-08-06T13:48:51;15.00;99.90
15115;DHT22;7658;51.456;7.622;2023-08-06T13:51:17;14.90;99.90
15115;DHT22;7658;51.456;7.622;2023-08-06T13:53:44;15.00;99.90
15115;DHT22;7658;51.456;7.622;2023-08-06T13:56:10;14.90;99.90
15115;DHT22;7658;51.456;7.622;2023-08-06T13:58:40;14.90;99.90
15115;DHT22;7658;51.456;7.622;2023-08-06T14:01:06;14.80;99.90
15115;DHT22;7658;51.456;7.622;2023-08-06T14:03:32;14.90;99.90
15115;DHT22;7658;51.456;7.622;2023-08-06T14:05:58;14.90;99.90
15115;DHT22;7658;51.456;7.622;2023-08-06T14:08:24;14.90;99.90
15115;DHT22;7658;51.456;7.622;2023-08-06T14:10:53;14.90;99.90
15115;DHT22;7658;51.456;7.622;2023-08-06T14:13:19;15.00;99.90
15115;DHT22;7658;51.456;7.622;2023-08-06T14:15:45;14.90;99.90
15115;DHT22;7658;51.456;7.622;2023-08-06T14:18:15;15.00;99.90
15115;DHT22;7658;51.456;7.622;2023-08-06T14:20:41;15.10;99.90
15115;DHT22;7658;51.456;7.622;2023-08-06T14:23:07;15.10;99.90
15115;DHT22;7658;51.456;7.622;2023-08-06T14:25:33;15.20;99.90
15115;DHT22;7658;51.456;7.622;2023-08-06T14:27:59;15.20;99.90
15115;DHT22;7658;51.456;7.622;2023-08-06T14:30:25;15.20;99.90
15115;DHT22;7658;51.456;7.622;2023-08-06T14:32:51;15.20;99.90
15115;DHT22;7658;51.456;7.622;2023-08-06T14:35:17;15.30;99.90
15115;DHT22;7658;51.456;7.622;2023-08-06T14:37:42;15.30;99.90
15115;DHT22;7658;51.456;7.622;2023-08-06T14:40:10;15.30;99.90
15115;DHT22;7658;51.456;7.622;2023-08-06T14:42:36;15.30;99.90
15115;DHT22;7658;51.456;7.622;2023-08-06T14:45:02;15.30;99.90
15115;DHT22;7658;51.456;7.622;2023-08-06T14:47:29;15.20;99.90
15115;DHT22;7658;51.456;7.622;2023-08-06T14:49:55;15.20;99.90
15115;DHT22;7658;51.456;7.622;2023-08-06T14:52:20;15.10;99.90
15115;DHT22;7658;51.456;7.622;2023-08-06T14:54:46;15.10;99.90
15115;DHT22;7658;51.456;7.622;2023-08-06T14:57:12;15.10;99.90
15115;DHT22;7658;51.456;7.622;2023-08-06T14:59:39;15.10;99.90
15115;DHT22;7658;51.456;7.622;2023-08-06T15:02:06;15.10;99.90
15115;DHT22;7658;51.456;7.622;2023-08-06T15:04:31;15.10;99.90
15115;DHT22;7658;51.456;7.622;2023-08-06T15:06:57;15.10;99.90
15115;DHT22;7658;51.456;7.622;2023-08-06T15:09:23;15.10;99.90
15115;DHT22;7658;51.456;7.622;2023-08-06T15:11:49;15.10;99.90
15115;DHT22;7658;51.456;7.622;2023-08-06T15:14:15;15.10;99.90
15115;DHT22;7658;51.456;7.622;2023-08-06T15:16:41;15.10;99.90
15115;DHT22;7658;51.456;7.622;2023-08-06T15:19:07;15.20;99.90
15115;DHT22;7658;51.456;7.622;2023-08-06T15:21:32;15.20;99.90
15115;DHT22;7658;51.456;7.622;2023-08-06T15:23:59;15.30;99.90
15115;DHT22;7658;51.456;7.622;2023-08-06T15:26:24;15.20;99.90
15115;DHT22;7658;51.456;7.622;2023-08-06T15:28:50;15.30;99.90
15115;DHT22;7658;51.456;7.622;2023-08-06T15:31:20;15.20;99.90
15115;DHT22;7658;51.456;7.622;2023-08-06T15:33:46;15.30;99.90
15115;DHT22;7658;51.456;7.622;2023-08-06T15:36:12;15.30;99.90
15115;DHT22;7658;51.456;7.622;2023-08-06T15:38:38;15.20;99.90
15115;DHT22;7658;51.456;7.622;2023-08-06T15:41:04;15.20;99.90
15115;DHT22;7658;51.456;7.622;2023-08-06T15:43:30;15.10;99.90
15115;DHT22;7658;51.456;7.622;2023-08-06T15:45:55;15.10;99.90
15115;DHT22;7658;51.456;7.622;2023-08-06T15:48:21;15.10;99.90
15115;DHT22;7658;51.456;7.622;2023-08-06T15:50:47;15.00;99.90
15115;DHT22;7658;51.456;7.622;2023-08-06T15:53:12;15.00;99.90
15115;DHT22;7658;51.456;7.622;2023-08-06T15:55:38;15.00;99.90
15115;DHT22;7658;51.456;7.622;2023-08-06T15:58:04;15.00;99.90
15115;DHT22;7658;51.456;7.622;2023-08-06T16:00:30;15.00;99.90
15115;DHT22;7658;51.456;7.622;2023-08-06T16:02:57;15.00;99.90
15115;DHT22;7658;51.456;7.622;2023-08-06T16:05:23;15.10;99.90
15115;DHT22;7658;51.456;7.622;2023-08-06T16:07:51;15.10;99.90